KLNN/LNN METAR and TAF weather

Enter ICAO airport designator
Station Type Date Time Source
KLNN METAR 2021/08/01 17:15 UTC NOAA

KLNN 011715Z AUTO 34007KT 10SM SCT022 BKN050 BKN100 23/15 A2989 RMK AO1 T02300147


Station Type Date Time Source
KLNN Decoded METAR 2021/08/01 17:15 UTC NOAA

Willoughby, OH, United States (KLNN) 41-41N 081-23W
Aug 01, 2021 - 01:15 PM EDT / 2021.08.01 1715 UTC
Wind: from the NNW (340 degrees) at 8 MPH (7 KT):0
Visibility: 10 mile(s):0
Sky conditions: mostly cloudy
Temperature: 73.4 F (23.0 C)
Dew Point: 58.5 F (14.7 C)
Relative Humidity: 59%
Pressure (altimeter): 29.89 in. Hg (1012 hPa)
ob: KLNN 011715Z AUTO 34007KT 10SM SCT022 BKN050 BKN100 23/15 A2989 RMK AO1 T02300147
cycle: 17

Station Type Date Time Source
KLNN TAF UTC NOAA

Error!

Example: see airport list